Time;durP1;ratioP1;P1;durP2;ratioP2;P2;SDS_P1;SDS_P2;PMS_P1;PMS_P2;Temp;Humidity;BMP_temperature;BMP_pressure;BME280_temperature;BME280_humidity;BME280_pressure;Samples;Min_cycle;Max_cycle;Signal;HPM_P1;HPM_P2
2023/03/18 00:01:33;;;;;;;5.90;3.72;;;11.30;99.90;;;;;;5156349;27;20471;-79
2023/03/18 00:03:58;;;;;;;7.93;3.10;;;11.50;99.90;;;;;;5158900;27;20090;-79
2023/03/18 00:06:24;;;;;;;5.95;3.17;;;11.30;99.90;;;;;;5158938;27;20050;-79
2023/03/18 00:08:51;;;;;;;7.68;3.33;;;11.40;99.90;;;;;;5158913;27;20054;-79
2023/03/18 00:11:18;;;;;;;10.65;3.53;;;11.40;99.90;;;;;;5158842;27;20390;-78
2023/03/18 00:13:45;;;;;;;4.85;3.00;;;11.40;99.90;;;;;;5158752;27;20095;-79
2023/03/18 00:16:11;;;;;;;5.85;3.28;;;11.80;99.90;;;;;;5158767;27;20486;-79
2023/03/18 00:18:38;;;;;;;7.20;3.35;;;11.40;99.90;;;;;;5158655;27;20034;-79
2023/03/18 00:21:04;;;;;;;6.70;3.53;;;11.40;99.90;;;;;;5158696;27;20050;-79
2023/03/18 00:23:31;;;;;;;7.83;3.27;;;11.30;99.90;;;;;;5158659;27;20106;-79
2023/03/18 00:25:59;;;;;;;6.25;3.35;;;11.60;99.90;;;;;;5158369;27;20474;-79
2023/03/18 00:28:25;;;;;;;5.93;3.33;;;11.30;99.90;;;;;;5158640;27;20054;-79
2023/03/18 00:30:52;;;;;;;6.90;3.60;;;11.30;99.90;;;;;;5158450;27;20046;-78
2023/03/18 00:33:18;;;;;;;7.95;3.30;;;11.20;99.90;;;;;;5158337;27;20038;-79
2023/03/18 00:35:45;;;;;;;8.40;3.58;;;11.30;99.90;;;;;;5159229;27;20042;-79
2023/03/18 00:38:19;;;;;;;7.60;3.58;;;11.30;99.90;;;;;;5158169;27;20126;-79
2023/03/18 00:40:52;;;;;;;5.68;3.15;;;11.50;99.90;;;;;;5158304;27;20046;-79
2023/03/18 00:43:28;;;;;;;7.53;3.42;;;11.20;99.90;;;;;;5158263;27;20546;-79
2023/03/18 00:45:55;;;;;;;5.68;3.35;;;11.40;99.90;;;;;;5158210;27;20049;-79
2023/03/18 00:48:22;;;;;;;8.32;3.65;;;11.20;99.90;;;;;;5158183;27;20050;-79
2023/03/18 00:50:48;;;;;;;6.57;4.07;;;11.20;99.90;;;;;;5158179;27;20398;-79
2023/03/18 00:53:14;;;;;;;6.50;3.80;;;11.20;99.90;;;;;;5157986;27;20038;-79
2023/03/18 00:55:40;;;;;;;7.05;3.80;;;11.10;99.90;;;;;;5157946;27;20893;-79
2023/03/18 00:58:07;;;;;;;7.95;3.30;;;11.10;99.90;;;;;;5157935;27;20048;-79
2023/03/18 01:00:34;;;;;;;6.90;3.65;;;11.10;99.90;;;;;;5157931;27;20515;-79
2023/03/18 01:03:00;;;;;;;10.55;4.20;;;11.10;99.90;;;;;;5157889;27;20057;-79
2023/03/18 01:05:26;;;;;;;7.87;3.90;;;11.00;99.90;;;;;;5157791;27;20051;-79
2023/03/18 01:07:52;;;;;;;7.27;3.77;;;11.00;99.90;;;;;;5157690;27;20083;-79
2023/03/18 01:10:18;;;;;;;5.32;3.90;;;11.10;99.90;;;;;;5157921;27;20494;-79
2023/03/18 01:12:47;;;;;;;9.48;4.13;;;11.00;99.90;;;;;;5156367;27;20035;-78
2023/03/18 01:15:16;;;;;;;7.85;3.78;;;11.00;99.90;;;;;;5157554;27;20051;-78
2023/03/18 01:17:43;;;;;;;7.45;3.67;;;10.90;99.90;;;;;;5157480;27;20035;-78
2023/03/18 01:20:10;;;;;;;5.47;3.58;;;11.30;99.90;;;;;;5157516;27;20047;-79
2023/03/18 01:22:36;;;;;;;7.72;4.07;;;10.90;99.90;;;;;;5157480;27;20043;-79
2023/03/18 01:25:02;;;;;;;6.80;4.13;;;10.80;99.90;;;;;;5157374;27;20126;-79
2023/03/18 01:27:28;;;;;;;10.20;4.10;;;10.80;99.90;;;;;;5157106;27;20130;-79
2023/03/18 01:29:54;;;;;;;7.40;3.47;;;10.80;99.90;;;;;;5157805;27;20046;-78
2023/03/18 01:32:20;;;;;;;8.75;3.97;;;10.70;99.90;;;;;;5157289;27;20194;-79
2023/03/18 01:34:46;;;;;;;12.93;4.20;;;10.70;99.90;;;;;;5157253;27;20083;-79
2023/03/18 01:37:12;;;;;;;9.77;3.67;;;10.70;99.90;;;;;;5138606;27;20046;-79
2023/03/18 01:39:38;;;;;;;8.07;3.70;;;10.70;99.90;;;;;;5157242;27;20042;-79
2023/03/18 01:42:05;;;;;;;8.40;3.83;;;10.70;99.90;;;;;;5156848;27;20058;-78
2023/03/18 01:44:31;;;;;;;;;;;10.60;99.90;;;;;;5138890;27;20058;-78
2023/03/18 01:46:57;;;;;;;7.65;4.07;;;10.60;99.90;;;;;;5156950;27;19919;-79
2023/03/18 01:49:29;;;;;;;11.35;4.05;;;10.60;99.90;;;;;;5157033;27;20130;-79
2023/03/18 01:52:02;;;;;;;8.02;4.20;;;10.60;99.90;;;;;;5157086;27;20051;-79
2023/03/18 01:54:31;;;;;;;6.35;4.15;;;10.50;99.90;;;;;;5156893;27;20047;-79
2023/03/18 01:56:58;;;;;;;7.28;3.75;;;10.50;99.90;;;;;;5156636;27;20557;-78
2023/03/18 01:59:27;;;;;;;11.15;4.85;;;10.50;99.90;;;;;;5156701;27;20039;-79
2023/03/18 02:02:00;;;;;;;5.32;3.65;;;10.50;99.90;;;;;;5156423;27;20516;-79
2023/03/18 02:04:31;;;;;;;6.72;3.58;;;10.70;99.90;;;;;;5138433;27;20074;-79
2023/03/18 02:06:58;;;;;;;7.13;3.90;;;10.40;99.90;;;;;;5156411;27;20524;-79
2023/03/18 02:09:24;;;;;;;;;;;10.40;99.90;;;;;;5156899;27;20093;-79
2023/03/18 02:11:50;;;;;;;6.97;4.30;;;10.40;99.90;;;;;;5137835;27;19970;-79
2023/03/18 02:14:25;;;;;;;6.07;3.83;;;10.30;99.90;;;;;;5156399;27;20043;-79
2023/03/18 02:17:07;;;;;;;8.25;4.25;;;10.30;99.90;;;;;;5156721;27;20130;-78
2023/03/18 02:19:41;;;;;;;7.13;3.92;;;10.20;99.90;;;;;;5138201;27;20057;-79
2023/03/18 02:22:32;;;;;;;7.25;4.00;;;10.20;99.90;;;;;;5138097;27;20135;-79
2023/03/18 02:25:16;;;;;;;7.20;4.72;;;10.10;99.90;;;;;;5155936;27;20058;-79
2023/03/18 02:27:44;;;;;;;8.88;4.70;;;10.10;99.90;;;;;;5156098;27;20121;-79
2023/03/18 02:30:16;;;;;;;7.93;4.88;;;10.00;99.90;;;;;;5156084;27;20042;-79
2023/03/18 02:32:43;;;;;;;6.03;3.80;;;10.50;99.90;;;;;;5156464;27;20049;-79
2023/03/18 02:35:10;;;;;;;8.90;5.32;;;10.00;99.90;;;;;;5155985;27;20455;-78
2023/03/18 02:37:36;;;;;;;;;;;10.00;99.90;;;;;;5156477;27;20432;-78
2023/03/18 02:40:35;;;;;;;6.47;4.32;;;10.30;99.90;;;;;;5155946;27;19919;-79
2023/03/18 02:43:21;;;;;;;7.03;4.40;;;9.90;99.90;;;;;;5126696;27;20051;-79
2023/03/18 02:45:52;;;;;;;9.48;4.50;;;9.90;99.90;;;;;;5155906;27;20042;-79
2023/03/18 02:48:22;;;;;;;13.32;5.00;;;9.80;99.90;;;;;;5156013;27;20046;-79
2023/03/18 02:50:49;;;;;;;9.18;4.72;;;9.80;99.90;;;;;;5155329;27;20043;-79
2023/03/18 02:53:14;;;;;;;9.52;4.60;;;9.80;99.90;;;;;;5137212;27;20122;-78
2023/03/18 02:55:41;;;;;;;8.00;5.00;;;9.80;99.90;;;;;;5155725;27;20458;-79
2023/03/18 02:58:08;;;;;;;8.57;4.05;;;9.80;99.90;;;;;;5155642;27;20050;-78
2023/03/18 03:00:34;;;;;;;8.55;4.55;;;9.80;99.90;;;;;;5137418;27;20042;-78
2023/03/18 03:03:00;;;;;;;14.10;4.72;;;9.70;99.90;;;;;;5155679;27;20097;-79
2023/03/18 03:05:26;;;;;;;11.63;5.73;;;9.70;99.90;;;;;;5155538;27;20046;-78
2023/03/18 03:07:52;;;;;;;5.47;4.15;;;9.70;99.90;;;;;;5155434;27;20054;-78
2023/03/18 03:10:17;;;;;;;8.43;4.43;;;9.70;99.90;;;;;;5155399;27;20043;-79
2023/03/18 03:12:44;;;;;;;7.40;4.53;;;9.70;99.90;;;;;;5155407;27;20086;-79
2023/03/18 03:15:10;;;;;;;8.00;4.75;;;9.60;99.90;;;;;;5155231;27;20505;-79
2023/03/18 03:17:36;;;;;;;11.30;4.90;;;9.60;99.90;;;;;;5155291;27;20510;-79
2023/03/18 03:20:05;;;;;;;9.05;4.65;;;9.60;99.90;;;;;;5155458;27;20308;-78
2023/03/18 03:22:31;;;;;;;9.18;4.53;;;9.60;99.90;;;;;;5155215;27;20039;-77
2023/03/18 03:24:57;;;;;;;12.50;4.70;;;10.00;99.90;;;;;;5155356;27;20390;-78
2023/03/18 03:27:23;;;;;;;7.88;4.57;;;9.60;99.90;;;;;;5155758;27;20126;-79
2023/03/18 03:29:48;;;;;;;8.05;5.28;;;9.60;99.90;;;;;;5154322;27;20051;-79
2023/03/18 03:32:14;;;;;;;7.85;4.78;;;9.60;99.90;;;;;;5155290;27;20039;-79
2023/03/18 03:34:40;;;;;;;6.88;4.70;;;9.60;99.90;;;;;;5155187;27;20046;-79
2023/03/18 03:37:06;;;;;;;8.77;4.97;;;9.50;99.90;;;;;;5157799;27;20111;-79
2023/03/18 03:39:32;;;;;;;8.35;5.38;;;9.40;99.90;;;;;;5159451;27;20138;-79
2023/03/18 03:41:58;;;;;;;14.05;5.63;;;9.40;99.90;;;;;;5159462;27;20479;-79
2023/03/18 03:44:23;;;;;;;8.30;5.15;;;9.40;99.90;;;;;;5159726;27;20045;-79
2023/03/18 03:46:49;;;;;;;8.40;5.05;;;9.50;99.90;;;;;;5141246;27;20053;-79
2023/03/18 03:49:15;;;;;;;13.45;5.75;;;9.30;99.90;;;;;;5159293;27;20077;-78
2023/03/18 03:51:41;;;;;;;13.32;5.32;;;9.40;99.90;;;;;;5158974;27;20103;-79
2023/03/18 03:54:06;;;;;;;9.77;5.22;;;9.30;99.90;;;;;;5158887;27;20038;-79
2023/03/18 03:56:32;;;;;;;7.53;5.13;;;9.50;99.90;;;;;;5159109;27;20082;-78
2023/03/18 03:58:59;;;;;;;12.57;5.57;;;9.70;99.90;;;;;;5159174;27;20086;-78
2023/03/18 04:01:26;;;;;;;8.48;5.43;;;9.40;99.90;;;;;;5159098;27;20057;-79
2023/03/18 04:03:51;;;;;;;8.45;5.22;;;9.40;99.90;;;;;;5158987;27;20039;-78
2023/03/18 04:06:17;;;;;;;9.25;5.63;;;9.40;99.90;;;;;;5159006;27;20492;-79
2023/03/18 04:08:42;;;;;;;7.88;5.05;;;9.40;99.90;;;;;;5158600;27;20497;-79
2023/03/18 04:11:08;;;;;;;9.82;5.90;;;9.40;99.90;;;;;;5158643;27;20043;-79
2023/03/18 04:13:34;;;;;;;8.83;5.53;;;9.40;99.90;;;;;;5158771;27;20346;-79
2023/03/18 04:16:00;;;;;;;10.43;5.45;;;9.40;99.90;;;;;;5158774;27;20054;-79
2023/03/18 04:18:26;;;;;;;11.65;5.85;;;9.40;99.90;;;;;;5159007;27;20042;-79
2023/03/18 04:20:51;;;;;;;10.55;5.30;;;9.40;99.90;;;;;;5158709;27;20042;-79
2023/03/18 04:23:17;;;;;;;11.57;6.50;;;9.30;99.90;;;;;;5158612;27;20053;-79
2023/03/18 04:25:43;;;;;;;15.20;5.93;;;9.30;99.90;;;;;;5159036;27;20030;-78
2023/03/18 04:28:09;;;;;;;12.77;6.13;;;9.30;99.90;;;;;;5158572;27;20045;-79
2023/03/18 04:30:34;;;;;;;10.63;5.68;;;9.20;99.90;;;;;;5158743;27;20038;-78
2023/03/18 04:33:02;;;;;;;9.93;5.57;;;9.20;99.90;;;;;;5158358;27;20047;-78
2023/03/18 04:35:28;;;;;;;8.95;5.63;;;9.20;99.90;;;;;;5158269;27;20095;-78
2023/03/18 04:37:53;;;;;;;11.00;6.00;;;9.20;99.90;;;;;;5158316;27;20073;-79
2023/03/18 04:40:19;;;;;;;10.95;6.03;;;9.10;99.90;;;;;;5158687;27;20061;-79
2023/03/18 04:42:46;;;;;;;9.68;6.72;;;9.10;99.90;;;;;;5158321;27;20042;-79
2023/03/18 04:45:14;;;;;;;10.60;6.72;;;9.10;99.90;;;;;;5157830;27;20043;-79
2023/03/18 04:47:41;;;;;;;11.57;7.20;;;9.10;99.90;;;;;;5139666;27;20047;-79
2023/03/18 04:50:10;;;;;;;10.18;6.93;;;9.10;99.90;;;;;;5158121;27;20397;-79
2023/03/18 04:52:37;;;;;;;11.90;6.55;;;9.10;99.90;;;;;;5139752;27;20042;-79
2023/03/18 04:55:04;;;;;;;13.75;6.30;;;9.10;99.90;;;;;;5157770;27;20088;-79
2023/03/18 04:57:30;;;;;;;10.85;6.55;;;9.10;99.90;;;;;;5157967;27;20042;-78
2023/03/18 04:59:57;;;;;;;11.15;6.20;;;9.00;99.90;;;;;;5157910;27;20049;-79
2023/03/18 05:02:23;;;;;;;11.50;7.10;;;9.10;99.90;;;;;;5157920;27;20080;-79
2023/03/18 05:04:48;;;;;;;10.32;6.40;;;9.10;99.90;;;;;;5157621;27;20031;-79
2023/03/18 05:07:15;;;;;;;10.82;6.88;;;9.20;99.90;;;;;;5157804;27;20444;-79
2023/03/18 05:09:41;;;;;;;11.48;7.05;;;9.20;99.90;;;;;;5139252;27;20046;-79
2023/03/18 05:12:14;;;;;;;11.00;7.15;;;9.10;99.90;;;;;;5157683;27;20034;-79
2023/03/18 05:14:42;;;;;;;10.80;6.88;;;9.00;99.90;;;;;;5157850;27;20094;-79
2023/03/18 05:17:14;;;;;;;13.73;6.88;;;9.10;99.90;;;;;;5157214;27;20046;-79
2023/03/18 05:19:44;;;;;;;11.82;7.13;;;9.10;99.90;;;;;;5157555;27;20053;-79
2023/03/18 05:22:10;;;;;;;15.85;8.32;;;9.10;99.90;;;;;;5157470;27;20043;-79
2023/03/18 05:24:36;;;;;;;12.77;8.63;;;9.10;99.90;;;;;;5157107;27;20509;-78
2023/03/18 05:27:02;;;;;;;13.70;7.38;;;9.10;99.90;;;;;;5157334;27;20486;-79
2023/03/18 05:29:28;;;;;;;11.50;6.80;;;9.10;99.90;;;;;;5157370;27;20058;-79
2023/03/18 05:31:53;;;;;;;14.10;7.15;;;9.10;99.90;;;;;;5157157;27;20042;-78
2023/03/18 05:34:19;;;;;;;10.82;7.28;;;9.20;99.90;;;;;;5157229;27;20474;-79
2023/03/18 05:36:45;;;;;;;11.57;7.80;;;9.10;99.90;;;;;;5157460;27;20039;-79
2023/03/18 05:39:10;;;;;;;13.32;7.72;;;9.10;99.90;;;;;;5157291;27;20041;-78
2023/03/18 05:41:36;;;;;;;12.00;7.35;;;9.20;99.90;;;;;;5157209;27;20039;-79
2023/03/18 05:44:01;;;;;;;15.20;7.70;;;9.10;99.90;;;;;;5157105;27;20035;-78
2023/03/18 05:46:30;;;;;;;12.70;7.40;;;9.20;99.90;;;;;;5157171;27;20046;-78
2023/03/18 05:48:56;;;;;;;10.25;7.63;;;9.20;99.90;;;;;;5156301;27;20053;-79
2023/03/18 05:51:21;;;;;;;15.02;7.75;;;9.20;99.90;;;;;;5156675;27;20038;-78
2023/03/18 05:53:47;;;;;;;12.02;7.68;;;9.20;99.90;;;;;;5156700;27;20098;-77
2023/03/18 05:56:14;;;;;;;11.98;7.88;;;9.20;99.90;;;;;;5138271;27;20047;-78
2023/03/18 05:58:40;;;;;;;16.38;7.97;;;9.20;99.90;;;;;;5137721;27;20125;-78
2023/03/18 06:01:06;;;;;;;16.13;7.78;;;9.20;99.90;;;;;;5156600;27;20187;-77
2023/03/18 06:03:33;;;;;;;13.57;8.43;;;9.20;99.90;;;;;;5156515;27;20053;-77
2023/03/18 06:06:00;;;;;;;13.40;8.05;;;9.20;99.90;;;;;;5156477;27;20280;-77
2023/03/18 06:08:26;;;;;;;13.15;8.05;;;9.30;99.90;;;;;;5156613;27;20152;-78
2023/03/18 06:10:52;;;;;;;16.98;8.18;;;9.20;99.90;;;;;;5156552;27;20076;-77
2023/03/18 06:13:18;;;;;;;16.48;8.30;;;9.20;99.90;;;;;;5138084;27;20496;-77
2023/03/18 06:15:45;;;;;;;15.65;8.35;;;9.20;99.90;;;;;;5156402;27;20131;-78
2023/03/18 06:18:11;;;;;;;13.95;8.15;;;9.20;99.90;;;;;;5156251;27;20394;-78
2023/03/18 06:20:37;;;;;;;16.93;7.90;;;9.40;99.90;;;;;;5156187;27;20038;-78
2023/03/18 06:23:04;;;;;;;15.50;9.23;;;9.20;99.90;;;;;;5137989;27;20046;-81
2023/03/18 06:25:30;;;;;;;11.95;7.82;;;9.20;99.90;;;;;;5137955;27;20078;-78
2023/03/18 06:27:56;;;;;;;14.00;8.55;;;9.20;99.90;;;;;;5156267;27;20042;-78
2023/03/18 06:30:22;;;;;;;18.25;8.30;;;9.20;99.90;;;;;;5155978;27;20351;-85
2023/03/18 06:32:48;;;;;;;18.30;9.57;;;9.20;99.90;;;;;;5156015;27;20412;-78
2023/03/18 06:35:15;;;;;;;15.18;8.27;;;9.30;99.90;;;;;;5156466;27;20136;-81
2023/03/18 06:37:41;;;;;;;;;;;9.80;99.90;;;;;;5156233;27;20474;-80
2023/03/18 06:40:08;;;;;;;16.70;8.63;;;9.30;99.90;;;;;;5137766;27;19919;-80
2023/03/18 06:42:34;;;;;;;13.68;8.43;;;9.40;99.90;;;;;;5155966;27;20078;-81
2023/03/18 06:45:00;;;;;;;13.73;8.40;;;9.40;99.90;;;;;;5156213;27;20051;-80
2023/03/18 06:47:26;;;;;;;17.60;8.90;;;9.40;99.90;;;;;;5155882;27;20098;-79
2023/03/18 06:49:54;;;;;;;15.63;9.85;;;9.40;99.90;;;;;;5137563;27;20039;-79
2023/03/18 06:52:20;;;;;;;15.52;9.07;;;9.40;99.90;;;;;;5155685;27;20054;-78
2023/03/18 06:54:45;;;;;;;15.73;8.68;;;9.50;99.90;;;;;;5155408;27;20050;-79
2023/03/18 06:57:11;;;;;;;15.48;9.10;;;9.60;99.90;;;;;;5155624;27;20105;-79
2023/03/18 06:59:37;;;;;;;16.55;9.27;;;9.70;99.90;;;;;;5155627;27;20448;-79
2023/03/18 07:02:04;;;;;;;12.40;8.68;;;10.00;99.90;;;;;;5155604;27;20034;-79
2023/03/18 07:04:30;;;;;;;;;;;9.80;99.90;;;;;;5155678;27;20387;-79
2023/03/18 07:06:56;;;;;;;15.25;9.65;;;9.80;99.90;;;;;;5155514;27;20010;-78
2023/03/18 07:09:23;;;;;;;14.65;9.23;;;10.10;99.90;;;;;;5155822;27;20047;-80
2023/03/18 07:11:49;;;;;;;16.65;9.45;;;9.90;99.90;;;;;;5119494;27;20056;-79
2023/03/18 07:14:15;;;;;;;15.32;9.27;;;9.90;99.90;;;;;;5155442;27;20035;-79
2023/03/18 07:16:41;;;;;;;16.52;10.07;;;10.00;99.90;;;;;;5155384;27;20042;-79
2023/03/18 07:19:06;;;;;;;16.23;10.47;;;10.30;99.90;;;;;;5155353;27;20035;-80
2023/03/18 07:21:32;;;;;;;17.70;10.57;;;10.10;99.90;;;;;;5136996;27;20038;-78
2023/03/18 07:23:58;;;;;;;15.50;10.13;;;10.10;99.90;;;;;;5155724;27;20065;-79
2023/03/18 07:26:24;;;;;;;18.20;10.18;;;10.10;99.90;;;;;;5154665;27;20050;-80
2023/03/18 07:28:50;;;;;;;19.70;11.33;;;10.20;99.90;;;;;;5155191;27;20047;-79
2023/03/18 07:31:16;;;;;;;18.83;11.95;;;10.10;99.90;;;;;;5155140;27;20058;-78
2023/03/18 07:33:42;;;;;;;17.65;10.48;;;10.20;99.90;;;;;;5155189;27;20034;-79
2023/03/18 07:36:07;;;;;;;15.50;9.98;;;10.60;99.90;;;;;;5155187;27;20069;-80
2023/03/18 07:38:33;;;;;;;20.45;10.45;;;10.20;99.90;;;;;;5155281;27;20038;-80
2023/03/18 07:40:59;;;;;;;19.40;11.00;;;10.20;99.90;;;;;;5155223;27;20034;-80
2023/03/18 07:43:25;;;;;;;18.02;11.05;;;10.50;99.90;;;;;;5136753;27;20035;-78
2023/03/18 07:45:51;;;;;;;23.83;11.10;;;10.20;99.90;;;;;;5155000;27;20042;-81
2023/03/18 07:48:16;;;;;;;22.67;11.43;;;10.20;99.90;;;;;;5155081;27;20050;-79
2023/03/18 07:50:42;;;;;;;18.80;11.82;;;10.30;99.90;;;;;;5154901;27;20045;-81
2023/03/18 07:53:08;;;;;;;19.98;12.20;;;10.30;99.90;;;;;;5155233;27;20492;-86
2023/03/18 07:55:34;;;;;;;23.70;13.50;;;10.30;99.90;;;;;;5136380;27;20489;-76
2023/03/18 07:58:01;;;;;;;24.15;12.38;;;10.30;99.90;;;;;;5155016;27;20070;-80
2023/03/18 08:00:26;;;;;;;22.05;14.15;;;10.30;99.90;;;;;;5155075;27;20083;-80
2023/03/18 08:02:52;;;;;;;22.90;13.00;;;10.30;99.90;;;;;;5136969;27;20035;-79
2023/03/18 08:05:18;;;;;;;20.67;13.00;;;10.30;99.90;;;;;;5154741;27;20047;-77
2023/03/18 08:07:44;;;;;;;22.13;13.60;;;10.40;99.90;;;;;;5119383;27;20049;-79
2023/03/18 08:10:11;;;;;;;20.10;13.02;;;10.50;99.90;;;;;;5155148;27;20133;-80
2023/03/18 08:12:36;;;;;;;27.70;14.65;;;10.60;99.90;;;;;;5155093;27;20047;-81
2023/03/18 08:15:03;;;;;;;23.65;14.48;;;10.60;99.90;;;;;;5136604;27;20038;-80
2023/03/18 08:17:29;;;;;;;23.63;13.88;;;10.60;99.90;;;;;;5154878;27;20043;-76
2023/03/18 08:19:55;;;;;;;25.70;15.10;;;11.30;99.90;;;;;;5155393;27;20049;-81
2023/03/18 08:22:21;;;;;;;24.98;14.18;;;10.70;99.90;;;;;;5155973;27;20389;-78
2023/03/18 08:24:47;;;;;;;27.05;14.25;;;10.70;99.90;;;;;;5158879;27;20043;-77
2023/03/18 08:27:12;;;;;;;22.77;14.43;;;11.20;99.90;;;;;;5158564;27;20050;-77
2023/03/18 08:29:38;;;;;;;26.25;15.48;;;10.60;99.90;;;;;;5140097;27;20043;-76
2023/03/18 08:32:04;;;;;;;24.27;14.90;;;10.60;99.90;;;;;;5158297;27;20108;-77
2023/03/18 08:34:29;;;;;;;31.83;15.90;;;10.70;99.90;;;;;;5158384;27;20053;-81
2023/03/18 08:36:55;;;;;;;26.17;15.13;;;10.80;99.90;;;;;;5158396;27;20039;-79
2023/03/18 08:39:21;;;;;;;28.60;15.18;;;10.90;99.90;;;;;;5158680;27;20125;-79
2023/03/18 08:41:48;;;;;;;22.77;15.00;;;11.00;99.90;;;;;;5140158;27;20043;-78
2023/03/18 08:44:14;;;;;;;23.40;14.15;;;11.10;99.90;;;;;;5140058;27;20092;-77
2023/03/18 08:46:40;;;;;;;29.27;14.83;;;11.20;99.90;;;;;;5158143;27;20129;-77
2023/03/18 08:49:06;;;;;;;24.27;14.32;;;11.30;99.90;;;;;;5158168;27;20312;-77
2023/03/18 08:51:32;;;;;;;28.38;14.50;;;11.50;99.90;;;;;;5157888;27;20103;-80
2023/03/18 08:53:58;;;;;;;26.93;13.97;;;11.60;99.90;;;;;;5158278;27;20054;-82
2023/03/18 08:56:24;;;;;;;25.10;14.40;;;11.80;99.90;;;;;;5139890;27;20042;-76
2023/03/18 08:58:49;;;;;;;24.55;13.65;;;12.00;99.90;;;;;;5158097;27;20102;-81
2023/03/18 09:01:16;;;;;;;25.20;14.15;;;12.50;99.90;;;;;;5139405;27;20425;-75
2023/03/18 09:03:43;;;;;;;29.15;14.88;;;12.50;99.90;;;;;;5139549;27;20049;-80
2023/03/18 09:06:09;;;;;;;20.10;13.52;;;12.60;99.90;;;;;;5139732;27;20047;-79
2023/03/18 09:08:35;;;;;;;20.13;13.23;;;13.20;99.90;;;;;;5157859;27;20045;-77
2023/03/18 09:11:01;;;;;;;21.85;13.30;;;13.00;99.90;;;;;;5157592;27;20046;-78
2023/03/18 09:13:26;;;;;;;27.23;14.20;;;13.30;99.90;;;;;;5157588;27;20046;-78
2023/03/18 09:15:53;;;;;;;23.42;13.48;;;13.50;99.90;;;;;;5138839;27;20039;-80
2023/03/18 09:18:19;;;;;;;20.52;13.23;;;13.60;99.90;;;;;;5158088;27;20049;-80
2023/03/18 09:20:45;;;;;;;28.92;13.13;;;13.70;99.90;;;;;;5136869;27;20043;-80
2023/03/18 09:23:12;;;;;;;22.30;13.57;;;13.80;99.90;;;;;;5132329;27;20135;-82
2023/03/18 09:25:41;;;;;;;24.00;12.68;;;13.80;99.90;;;;;;5137077;27;20047;-78
2023/03/18 09:28:07;;;;;;;22.55;14.07;;;14.00;99.90;;;;;;5136645;27;20043;-79
2023/03/18 09:30:33;;;;;;;28.40;14.10;;;14.10;99.90;;;;;;5136820;27;20043;-76
2023/03/18 09:32:58;;;;;;;19.60;12.95;;;14.70;99.90;;;;;;5136370;27;20459;-82
2023/03/18 09:35:24;;;;;;;19.05;12.43;;;14.30;99.90;;;;;;5135370;27;20047;-76
2023/03/18 09:37:50;;;;;;;17.23;12.60;;;14.40;99.90;;;;;;5136768;27;20082;-82
2023/03/18 09:40:40;;;;;;;17.48;12.50;;;14.20;99.90;;;;;;5136486;27;20035;-77
2023/03/18 09:43:32;;;;;;;20.48;12.23;;;14.30;99.90;;;;;;5136299;27;20088;-78
2023/03/18 09:46:31;;;;;;;19.65;12.15;;;14.20;99.90;;;;;;5136388;27;20047;-78
2023/03/18 09:49:19;;;;;;;;;;;14.00;99.90;;;;;;5136948;27;20116;-80
2023/03/18 09:52:12;;;;;;;18.27;12.07;;;14.00;99.90;;;;;;5097508;27;19945;-77
2023/03/18 09:55:01;;;;;;;18.10;11.57;;;14.00;99.90;;;;;;5136134;27;20051;-77
2023/03/18 09:57:35;;;;;;;15.32;10.48;;;14.10;99.90;;;;;;5117992;27;20043;-76
2023/03/18 10:00:25;;;;;;;19.50;11.98;;;14.10;99.90;;;;;;5136076;27;20100;-76
2023/03/18 10:02:54;;;;;;;17.05;11.27;;;14.30;99.90;;;;;;5136254;27;20175;-76
2023/03/18 10:05:31;;;;;;;17.52;10.60;;;14.50;99.90;;;;;;5135745;27;20090;-77
2023/03/18 10:08:03;;;;;;;18.48;11.13;;;14.50;99.90;;;;;;5135748;27;20054;-77
2023/03/18 10:10:44;;;;;;;16.02;10.60;;;14.70;99.90;;;;;;5135760;27;20047;-74
2023/03/18 10:13:28;;;;;;;14.48;9.65;;;14.90;99.90;;;;;;5135830;27;20043;-75
2023/03/18 10:15:56;;;;;;;15.05;9.45;;;14.90;99.90;;;;;;5135960;27;20425;-75
2023/03/18 10:18:36;;;;;;;16.38;9.32;;;15.00;99.90;;;;;;5139215;27;20043;-75
2023/03/18 10:21:23;;;;;;;13.32;8.80;;;15.00;99.90;;;;;;5139928;27;20039;-75
2023/03/18 10:24:08;;;;;;;13.50;8.93;;;14.90;99.90;;;;;;5135331;27;20039;-76
2023/03/18 10:26:47;;;;;;;11.15;8.43;;;14.70;99.90;;;;;;5135161;27;20043;-76
2023/03/18 10:29:35;;;;;;;14.73;9.55;;;14.60;99.90;;;;;;5135278;27;20051;-80
2023/03/18 10:32:10;;;;;;;13.02;9.27;;;14.50;99.90;;;;;;5135478;27;20469;-78
2023/03/18 10:34:54;;;;;;;14.07;9.80;;;14.30;99.90;;;;;;5125505;27;20055;-80
2023/03/18 10:37:33;;;;;;;15.45;9.68;;;14.30;99.90;;;;;;5139223;27;20051;-83
2023/03/18 10:39:59;;;;;;;14.98;10.05;;;14.20;99.90;;;;;;5135224;27;20039;-79
2023/03/18 10:42:30;;;;;;;13.50;9.83;;;14.20;99.90;;;;;;5149237;27;20414;-79
2023/03/18 10:45:16;;;;;;;13.10;9.60;;;14.40;99.90;;;;;;5155696;27;20046;-76
2023/03/18 10:47:46;;;;;;;14.85;8.57;;;14.50;99.90;;;;;;5155681;27;20065;-80
2023/03/18 10:50:38;;;;;;;15.43;8.43;;;14.60;99.90;;;;;;5156238;27;20039;-81
2023/03/18 10:53:15;;;;;;;14.93;8.75;;;14.60;99.90;;;;;;5120172;27;20085;-76
2023/03/18 10:55:54;;;;;;;10.65;7.50;;;14.60;99.90;;;;;;5155786;27;20074;-78
2023/03/18 10:58:20;;;;;;;10.00;7.28;;;14.70;99.90;;;;;;5155695;27;20050;-79
2023/03/18 11:00:48;;;;;;;13.47;7.17;;;14.70;99.90;;;;;;5155261;27;20061;-78
2023/03/18 11:03:26;;;;;;;13.43;8.02;;;14.80;99.90;;;;;;5155547;27;20050;-76
2023/03/18 11:05:54;;;;;;;10.82;7.68;;;14.90;99.90;;;;;;5155802;27;20047;-80
2023/03/18 11:08:47;;;;;;;13.25;7.95;;;15.20;99.90;;;;;;5155524;27;20034;-76
2023/03/18 11:11:26;;;;;;;10.95;7.18;;;15.20;99.90;;;;;;5151975;27;20064;-78
2023/03/18 11:13:55;;;;;;;12.60;8.05;;;15.20;99.90;;;;;;5155572;27;20047;-76
2023/03/18 11:16:37;;;;;;;11.68;7.85;;;15.20;99.90;;;;;;5155531;27;20042;-77
2023/03/18 11:19:28;;;;;;;14.10;7.47;;;15.40;99.90;;;;;;5155437;27;20082;-78
2023/03/18 11:22:03;;;;;;;10.32;6.95;;;15.50;99.90;;;;;;5155743;27;20039;-78
2023/03/18 11:24:38;;;;;;;9.48;6.20;;;15.50;99.90;;;;;;5155335;27;20046;-76
2023/03/18 11:27:24;;;;;;;9.77;6.55;;;15.70;99.90;;;;;;5155288;27;20046;-84
2023/03/18 11:30:01;;;;;;;8.82;6.38;;;15.70;99.90;;;;;;5154202;27;20451;-77
2023/03/18 11:32:33;;;;;;;13.10;7.03;;;15.70;99.90;;;;;;5154002;27;20047;-77
2023/03/18 11:35:03;;;;;;;9.57;6.63;;;15.60;99.90;;;;;;5152979;27;20038;-77
2023/03/18 11:37:31;;;;;;;9.50;7.07;;;15.60;99.90;;;;;;5153897;27;20150;-77
2023/03/18 11:40:12;;;;;;;10.30;7.15;;;15.70;99.90;;;;;;5153568;27;20046;-77
2023/03/18 11:42:40;;;;;;;10.75;7.40;;;15.90;99.90;;;;;;5153801;27;20038;-77
2023/03/18 11:45:41;;;;;;;9.73;7.28;;;16.00;99.90;;;;;;5153830;27;20042;-78
2023/03/18 11:48:35;;;;;;;10.85;7.38;;;16.00;99.90;;;;;;5154445;27;20050;-78
2023/03/18 11:51:21;;;;;;;11.00;7.90;;;16.00;99.90;;;;;;5155380;27;20398;-77
2023/03/18 11:54:08;;;;;;;9.77;7.22;;;16.00;99.90;;;;;;5155255;27;20060;-77
2023/03/18 11:56:47;;;;;;;10.77;7.70;;;16.00;99.90;;;;;;5155326;27;20050;-78
2023/03/18 11:59:22;;;;;;;13.10;8.13;;;15.80;99.90;;;;;;5158897;27;20458;-78
2023/03/18 12:02:24;;;;;;;14.35;8.27;;;15.70;99.90;;;;;;5159061;27;20047;-78
2023/03/18 12:04:56;;;;;;;10.65;7.43;;;15.60;99.90;;;;;;5158912;27;20506;-76
2023/03/18 12:07:30;;;;;;;10.32;7.70;;;15.50;99.90;;;;;;5158908;27;20107;-77
2023/03/18 12:10:21;;;;;;;12.23;7.45;;;15.40;99.90;;;;;;5159675;27;20053;-77
2023/03/18 12:13:10;;;;;;;9.98;7.40;;;15.20;99.90;;;;;;5158995;27;20075;-78
2023/03/18 12:16:00;;;;;;;10.57;7.55;;;15.20;99.90;;;;;;5158799;27;20050;-76
2023/03/18 12:18:54;;;;;;;11.55;7.32;;;15.30;99.90;;;;;;5158505;27;20573;-78
2023/03/18 12:21:41;;;;;;;11.20;7.95;;;15.40;99.90;;;;;;5159011;27;20089;-77
2023/03/18 12:24:35;;;;;;;11.77;7.55;;;15.50;99.90;;;;;;5158621;27;20050;-77
2023/03/18 12:27:35;;;;;;;11.93;7.85;;;15.50;99.90;;;;;;5158872;27;20054;-77
2023/03/18 12:30:36;;;;;;;9.77;6.65;;;15.50;99.90;;;;;;5158488;27;20493;-77
2023/03/18 12:33:17;;;;;;;10.25;7.63;;;15.50;99.90;;;;;;5158753;27;20043;-77
2023/03/18 12:36:05;;;;;;;10.50;7.07;;;15.50;99.90;;;;;;5158430;27;20126;-77
2023/03/18 12:38:40;;;;;;;;;;;15.50;99.90;;;;;;5158797;27;20070;-77
2023/03/18 12:41:16;;;;;;;10.63;7.75;;;15.50;99.90;;;;;;5158782;27;19944;-77
2023/03/18 12:44:06;;;;;;;9.65;7.32;;;15.40;99.90;;;;;;5158276;27;20039;-77
2023/03/18 12:46:46;;;;;;;9.45;7.30;;;15.40;99.90;;;;;;5144859;27;20065;-77
2023/03/18 12:49:23;;;;;;;9.45;7.00;;;15.40;99.90;;;;;;5158044;27;20046;-77
2023/03/18 12:52:05;;;;;;;15.45;8.75;;;15.40;99.90;;;;;;5158044;27;20058;-78
2023/03/18 12:54:49;;;;;;;9.80;7.38;;;15.30;99.90;;;;;;5158070;27;20062;-78
2023/03/18 12:57:49;;;;;;;9.68;6.50;;;15.30;99.90;;;;;;5158048;27;20168;-77
2023/03/18 13:00:22;;;;;;;8.23;6.10;;;15.30;99.90;;;;;;5157852;27;20046;-77